sensor_id;sensor_type;location;lat;lon;timestamp;P1;durP1;ratioP1;P2;durP2;ratioP2
13927;SDS011;7036;50.834;4.718;2024-03-08T00:00:06;9.60;;;7.05;;
13927;SDS011;7036;50.834;4.718;2024-03-08T00:02:36;7.47;;;6.50;;
13927;SDS011;7036;50.834;4.718;2024-03-08T00:05:04;7.35;;;6.60;;
13927;SDS011;7036;50.834;4.718;2024-03-08T00:07:30;9.70;;;6.90;;
13927;SDS011;7036;50.834;4.718;2024-03-08T00:09:58;7.78;;;6.63;;
13927;SDS011;7036;50.834;4.718;2024-03-08T00:12:26;7.93;;;7.15;;
13927;SDS011;7036;50.834;4.718;2024-03-08T00:14:54;8.25;;;7.43;;
13927;SDS011;7036;50.834;4.718;2024-03-08T00:17:22;7.78;;;6.95;;
13927;SDS011;7036;50.834;4.718;2024-03-08T00:19:49;8.27;;;6.28;;
13927;SDS011;7036;50.834;4.718;2024-03-08T00:22:17;7.75;;;6.85;;
13927;SDS011;7036;50.834;4.718;2024-03-08T00:24:44;7.35;;;6.53;;
13927;SDS011;7036;50.834;4.718;2024-03-08T00:27:12;7.63;;;6.93;;
13927;SDS011;7036;50.834;4.718;2024-03-08T00:29:40;7.45;;;6.47;;
13927;SDS011;7036;50.834;4.718;2024-03-08T00:32:08;7.32;;;6.63;;
13927;SDS011;7036;50.834;4.718;2024-03-08T00:34:36;7.78;;;6.97;;
13927;SDS011;7036;50.834;4.718;2024-03-08T00:37:04;8.88;;;7.50;;
13927;SDS011;7036;50.834;4.718;2024-03-08T00:39:31;8.20;;;7.00;;
13927;SDS011;7036;50.834;4.718;2024-03-08T00:42:00;7.95;;;6.70;;
13927;SDS011;7036;50.834;4.718;2024-03-08T00:44:26;8.13;;;7.33;;
13927;SDS011;7036;50.834;4.718;2024-03-08T00:46:54;8.02;;;6.88;;
13927;SDS011;7036;50.834;4.718;2024-03-08T00:49:22;8.00;;;7.20;;
13927;SDS011;7036;50.834;4.718;2024-03-08T00:51:50;7.60;;;6.85;;
13927;SDS011;7036;50.834;4.718;2024-03-08T00:54:18;8.05;;;7.07;;
13927;SDS011;7036;50.834;4.718;2024-03-08T00:56:46;8.15;;;7.35;;
13927;SDS011;7036;50.834;4.718;2024-03-08T00:59:14;7.72;;;6.93;;
13927;SDS011;7036;50.834;4.718;2024-03-08T01:01:42;8.55;;;7.75;;
13927;SDS011;7036;50.834;4.718;2024-03-08T01:04:10;8.20;;;7.22;;
13927;SDS011;7036;50.834;4.718;2024-03-08T01:06:37;7.68;;;6.93;;
13927;SDS011;7036;50.834;4.718;2024-03-08T01:09:04;8.02;;;7.15;;
13927;SDS011;7036;50.834;4.718;2024-03-08T01:11:31;8.13;;;7.30;;
13927;SDS011;7036;50.834;4.718;2024-03-08T01:13:59;8.63;;;7.43;;
13927;SDS011;7036;50.834;4.718;2024-03-08T01:16:26;7.50;;;6.70;;
13927;SDS011;7036;50.834;4.718;2024-03-08T01:18:54;8.13;;;7.20;;
13927;SDS011;7036;50.834;4.718;2024-03-08T01:21:22;7.85;;;7.00;;
13927;SDS011;7036;50.834;4.718;2024-03-08T01:23:50;8.30;;;7.47;;
13927;SDS011;7036;50.834;4.718;2024-03-08T01:26:18;7.95;;;7.15;;
13927;SDS011;7036;50.834;4.718;2024-03-08T01:28:46;8.27;;;7.47;;
13927;SDS011;7036;50.834;4.718;2024-03-08T01:31:14;9.00;;;8.10;;
13927;SDS011;7036;50.834;4.718;2024-03-08T01:33:42;8.82;;;7.85;;
13927;SDS011;7036;50.834;4.718;2024-03-08T01:36:10;8.20;;;7.25;;
13927;SDS011;7036;50.834;4.718;2024-03-08T01:38:38;10.13;;;7.57;;
13927;SDS011;7036;50.834;4.718;2024-03-08T01:41:06;8.90;;;7.97;;
13927;SDS011;7036;50.834;4.718;2024-03-08T01:43:34;8.25;;;7.30;;
13927;SDS011;7036;50.834;4.718;2024-03-08T01:46:01;8.43;;;7.60;;
13927;SDS011;7036;50.834;4.718;2024-03-08T01:48:30;9.52;;;8.05;;
13927;SDS011;7036;50.834;4.718;2024-03-08T01:50:57;8.38;;;7.45;;
13927;SDS011;7036;50.834;4.718;2024-03-08T01:53:26;8.48;;;7.68;;
13927;SDS011;7036;50.834;4.718;2024-03-08T01:55:54;8.93;;;7.88;;
13927;SDS011;7036;50.834;4.718;2024-03-08T01:58:22;8.30;;;7.50;;
13927;SDS011;7036;50.834;4.718;2024-03-08T02:00:49;7.72;;;7.05;;
13927;SDS011;7036;50.834;4.718;2024-03-08T02:03:17;8.90;;;7.63;;
13927;SDS011;7036;50.834;4.718;2024-03-08T02:05:45;9.35;;;8.15;;
13927;SDS011;7036;50.834;4.718;2024-03-08T02:08:12;8.77;;;7.95;;
13927;SDS011;7036;50.834;4.718;2024-03-08T02:10:41;8.68;;;7.88;;
13927;SDS011;7036;50.834;4.718;2024-03-08T02:13:08;8.60;;;7.72;;
13927;SDS011;7036;50.834;4.718;2024-03-08T02:15:54;8.52;;;7.63;;
13927;SDS011;7036;50.834;4.718;2024-03-08T02:18:23;9.00;;;7.67;;
13927;SDS011;7036;50.834;4.718;2024-03-08T02:20:52;9.13;;;8.23;;
13927;SDS011;7036;50.834;4.718;2024-03-08T02:23:18;9.30;;;8.40;;
13927;SDS011;7036;50.834;4.718;2024-03-08T02:25:46;8.98;;;8.07;;
13927;SDS011;7036;50.834;4.718;2024-03-08T02:28:14;8.10;;;7.40;;
13927;SDS011;7036;50.834;4.718;2024-03-08T02:30:41;8.15;;;7.30;;
13927;SDS011;7036;50.834;4.718;2024-03-08T02:33:09;8.75;;;7.95;;
13927;SDS011;7036;50.834;4.718;2024-03-08T02:35:37;8.15;;;7.38;;
13927;SDS011;7036;50.834;4.718;2024-03-08T02:38:05;9.90;;;8.27;;
13927;SDS011;7036;50.834;4.718;2024-03-08T02:40:33;8.98;;;8.18;;
13927;SDS011;7036;50.834;4.718;2024-03-08T02:43:00;8.50;;;7.70;;
13927;SDS011;7036;50.834;4.718;2024-03-08T02:45:28;9.40;;;8.40;;
13927;SDS011;7036;50.834;4.718;2024-03-08T02:47:56;8.85;;;8.05;;
13927;SDS011;7036;50.834;4.718;2024-03-08T02:50:23;8.63;;;7.82;;
13927;SDS011;7036;50.834;4.718;2024-03-08T02:52:51;8.88;;;7.97;;
13927;SDS011;7036;50.834;4.718;2024-03-08T02:55:19;9.32;;;7.57;;
13927;SDS011;7036;50.834;4.718;2024-03-08T02:57:47;8.82;;;7.88;;
13927;SDS011;7036;50.834;4.718;2024-03-08T03:00:15;9.07;;;8.23;;
13927;SDS011;7036;50.834;4.718;2024-03-08T03:02:42;9.05;;;7.95;;
13927;SDS011;7036;50.834;4.718;2024-03-08T03:05:10;9.43;;;8.32;;
13927;SDS011;7036;50.834;4.718;2024-03-08T03:07:38;8.82;;;8.00;;
13927;SDS011;7036;50.834;4.718;2024-03-08T03:10:06;8.27;;;7.45;;
13927;SDS011;7036;50.834;4.718;2024-03-08T03:12:33;8.52;;;7.72;;
13927;SDS011;7036;50.834;4.718;2024-03-08T03:15:01;9.23;;;8.32;;
13927;SDS011;7036;50.834;4.718;2024-03-08T03:17:29;9.68;;;8.02;;
13927;SDS011;7036;50.834;4.718;2024-03-08T03:19:57;9.05;;;8.13;;
13927;SDS011;7036;50.834;4.718;2024-03-08T03:22:25;8.40;;;7.60;;
13927;SDS011;7036;50.834;4.718;2024-03-08T03:24:53;8.80;;;8.00;;
13927;SDS011;7036;50.834;4.718;2024-03-08T03:27:21;8.45;;;7.65;;
13927;SDS011;7036;50.834;4.718;2024-03-08T03:29:49;9.80;;;8.25;;
13927;SDS011;7036;50.834;4.718;2024-03-08T03:32:17;8.48;;;7.68;;
13927;SDS011;7036;50.834;4.718;2024-03-08T03:34:45;9.38;;;8.27;;
13927;SDS011;7036;50.834;4.718;2024-03-08T03:37:12;8.35;;;7.55;;
13927;SDS011;7036;50.834;4.718;2024-03-08T03:39:40;9.32;;;8.52;;
13927;SDS011;7036;50.834;4.718;2024-03-08T03:42:08;9.27;;;8.38;;
13927;SDS011;7036;50.834;4.718;2024-03-08T03:44:35;7.85;;;7.15;;
13927;SDS011;7036;50.834;4.718;2024-03-08T03:47:02;9.27;;;8.48;;
13927;SDS011;7036;50.834;4.718;2024-03-08T03:49:30;9.55;;;8.10;;
13927;SDS011;7036;50.834;4.718;2024-03-08T03:51:57;9.40;;;8.60;;
13927;SDS011;7036;50.834;4.718;2024-03-08T03:54:25;8.77;;;7.97;;
13927;SDS011;7036;50.834;4.718;2024-03-08T03:56:53;8.95;;;8.05;;
13927;SDS011;7036;50.834;4.718;2024-03-08T03:59:21;8.32;;;7.53;;
13927;SDS011;7036;50.834;4.718;2024-03-08T04:01:48;9.13;;;8.25;;
13927;SDS011;7036;50.834;4.718;2024-03-08T04:04:16;8.63;;;7.70;;
13927;SDS011;7036;50.834;4.718;2024-03-08T04:06:44;9.02;;;8.13;;
13927;SDS011;7036;50.834;4.718;2024-03-08T04:09:11;10.20;;;8.60;;
13927;SDS011;7036;50.834;4.718;2024-03-08T04:11:39;9.05;;;8.30;;
13927;SDS011;7036;50.834;4.718;2024-03-08T04:14:07;10.35;;;8.52;;
13927;SDS011;7036;50.834;4.718;2024-03-08T04:16:34;8.65;;;7.85;;
13927;SDS011;7036;50.834;4.718;2024-03-08T04:19:02;9.48;;;8.57;;
13927;SDS011;7036;50.834;4.718;2024-03-08T04:21:30;10.52;;;9.20;;
13927;SDS011;7036;50.834;4.718;2024-03-08T04:23:58;9.25;;;8.43;;
13927;SDS011;7036;50.834;4.718;2024-03-08T04:26:26;9.40;;;8.50;;
13927;SDS011;7036;50.834;4.718;2024-03-08T04:28:54;9.18;;;8.25;;
13927;SDS011;7036;50.834;4.718;2024-03-08T04:31:22;9.52;;;8.63;;
13927;SDS011;7036;50.834;4.718;2024-03-08T04:33:50;9.18;;;8.38;;
13927;SDS011;7036;50.834;4.718;2024-03-08T04:36:18;9.60;;;8.43;;
13927;SDS011;7036;50.834;4.718;2024-03-08T04:38:46;9.65;;;8.65;;
13927;SDS011;7036;50.834;4.718;2024-03-08T04:41:13;8.63;;;7.90;;
13927;SDS011;7036;50.834;4.718;2024-03-08T04:43:41;9.27;;;8.45;;
13927;SDS011;7036;50.834;4.718;2024-03-08T04:46:09;9.65;;;8.65;;
13927;SDS011;7036;50.834;4.718;2024-03-08T04:48:37;10.25;;;9.07;;
13927;SDS011;7036;50.834;4.718;2024-03-08T04:51:04;9.93;;;9.00;;
13927;SDS011;7036;50.834;4.718;2024-03-08T04:53:31;9.40;;;8.50;;
13927;SDS011;7036;50.834;4.718;2024-03-08T04:55:58;9.25;;;7.82;;
13927;SDS011;7036;50.834;4.718;2024-03-08T04:58:26;8.90;;;8.10;;
13927;SDS011;7036;50.834;4.718;2024-03-08T05:00:54;9.40;;;8.50;;
13927;SDS011;7036;50.834;4.718;2024-03-08T05:03:21;9.73;;;8.75;;
13927;SDS011;7036;50.834;4.718;2024-03-08T05:05:49;9.48;;;8.68;;
13927;SDS011;7036;50.834;4.718;2024-03-08T05:08:17;9.43;;;8.52;;
13927;SDS011;7036;50.834;4.718;2024-03-08T05:10:45;9.70;;;8.80;;
13927;SDS011;7036;50.834;4.718;2024-03-08T05:13:12;9.55;;;8.63;;
13927;SDS011;7036;50.834;4.718;2024-03-08T05:15:40;9.18;;;8.27;;
13927;SDS011;7036;50.834;4.718;2024-03-08T05:18:07;9.80;;;8.90;;
13927;SDS011;7036;50.834;4.718;2024-03-08T05:20:35;8.65;;;7.85;;
13927;SDS011;7036;50.834;4.718;2024-03-08T05:23:03;9.30;;;8.50;;
13927;SDS011;7036;50.834;4.718;2024-03-08T05:25:31;9.40;;;8.50;;
13927;SDS011;7036;50.834;4.718;2024-03-08T05:27:59;9.32;;;8.30;;
13927;SDS011;7036;50.834;4.718;2024-03-08T05:30:27;9.30;;;8.50;;
13927;SDS011;7036;50.834;4.718;2024-03-08T05:32:54;9.52;;;8.52;;
13927;SDS011;7036;50.834;4.718;2024-03-08T05:35:21;9.35;;;8.48;;
13927;SDS011;7036;50.834;4.718;2024-03-08T05:37:48;9.80;;;8.70;;
13927;SDS011;7036;50.834;4.718;2024-03-08T05:40:15;10.57;;;8.73;;
13927;SDS011;7036;50.834;4.718;2024-03-08T05:42:43;9.75;;;8.85;;
13927;SDS011;7036;50.834;4.718;2024-03-08T05:45:11;10.23;;;9.23;;
13927;SDS011;7036;50.834;4.718;2024-03-08T05:47:39;9.32;;;8.30;;
13927;SDS011;7036;50.834;4.718;2024-03-08T05:50:07;8.90;;;8.10;;
13927;SDS011;7036;50.834;4.718;2024-03-08T05:52:35;10.15;;;9.25;;
13927;SDS011;7036;50.834;4.718;2024-03-08T05:55:03;9.25;;;8.30;;
13927;SDS011;7036;50.834;4.718;2024-03-08T05:57:30;9.63;;;8.73;;
13927;SDS011;7036;50.834;4.718;2024-03-08T05:59:57;10.13;;;9.07;;
13927;SDS011;7036;50.834;4.718;2024-03-08T06:02:25;9.77;;;8.77;;
13927;SDS011;7036;50.834;4.718;2024-03-08T06:04:53;10.00;;;9.07;;
13927;SDS011;7036;50.834;4.718;2024-03-08T06:07:21;9.65;;;8.43;;
13927;SDS011;7036;50.834;4.718;2024-03-08T06:09:49;9.23;;;8.38;;
13927;SDS011;7036;50.834;4.718;2024-03-08T06:12:17;9.30;;;8.40;;
13927;SDS011;7036;50.834;4.718;2024-03-08T06:14:44;9.70;;;8.80;;
13927;SDS011;7036;50.834;4.718;2024-03-08T06:17:11;9.43;;;8.52;;
13927;SDS011;7036;50.834;4.718;2024-03-08T06:19:38;10.18;;;9.13;;
13927;SDS011;7036;50.834;4.718;2024-03-08T06:22:05;10.07;;;9.00;;
13927;SDS011;7036;50.834;4.718;2024-03-08T06:24:33;10.00;;;9.00;;
13927;SDS011;7036;50.834;4.718;2024-03-08T06:27:00;10.13;;;9.18;;
13927;SDS011;7036;50.834;4.718;2024-03-08T06:29:28;10.27;;;9.18;;
13927;SDS011;7036;50.834;4.718;2024-03-08T06:31:55;10.00;;;9.00;;
13927;SDS011;7036;50.834;4.718;2024-03-08T06:34:22;9.63;;;8.73;;
13927;SDS011;7036;50.834;4.718;2024-03-08T06:36:50;11.65;;;9.07;;
13927;SDS011;7036;50.834;4.718;2024-03-08T06:39:18;11.70;;;8.68;;
13927;SDS011;7036;50.834;4.718;2024-03-08T06:41:45;10.98;;;9.13;;
13927;SDS011;7036;50.834;4.718;2024-03-08T06:44:12;9.10;;;8.20;;
13927;SDS011;7036;50.834;4.718;2024-03-08T06:46:39;9.43;;;8.52;;
13927;SDS011;7036;50.834;4.718;2024-03-08T06:49:07;9.63;;;8.52;;
13927;SDS011;7036;50.834;4.718;2024-03-08T06:51:35;10.25;;;9.13;;
13927;SDS011;7036;50.834;4.718;2024-03-08T06:54:03;10.13;;;9.00;;
13927;SDS011;7036;50.834;4.718;2024-03-08T06:56:31;14.88;;;9.35;;
13927;SDS011;7036;50.834;4.718;2024-03-08T06:58:59;12.68;;;9.90;;
13927;SDS011;7036;50.834;4.718;2024-03-08T07:01:26;14.40;;;11.48;;
13927;SDS011;7036;50.834;4.718;2024-03-08T07:03:53;15.27;;;12.82;;
13927;SDS011;7036;50.834;4.718;2024-03-08T07:06:20;14.45;;;11.85;;
13927;SDS011;7036;50.834;4.718;2024-03-08T07:08:47;13.50;;;11.13;;
13927;SDS011;7036;50.834;4.718;2024-03-08T07:11:15;15.63;;;12.02;;
13927;SDS011;7036;50.834;4.718;2024-03-08T07:13:45;11.73;;;10.50;;
13927;SDS011;7036;50.834;4.718;2024-03-08T07:16:11;12.93;;;10.55;;
13927;SDS011;7036;50.834;4.718;2024-03-08T07:18:39;17.35;;;11.05;;
13927;SDS011;7036;50.834;4.718;2024-03-08T07:21:08;12.63;;;10.27;;
13927;SDS011;7036;50.834;4.718;2024-03-08T07:23:35;11.25;;;10.15;;
13927;SDS011;7036;50.834;4.718;2024-03-08T07:26:16;15.67;;;10.20;;
13927;SDS011;7036;50.834;4.718;2024-03-08T07:28:44;11.17;;;10.07;;
13927;SDS011;7036;50.834;4.718;2024-03-08T07:31:11;10.37;;;9.27;;
13927;SDS011;7036;50.834;4.718;2024-03-08T07:33:52;10.73;;;8.67;;
13927;SDS011;7036;50.834;4.718;2024-03-08T07:36:20;10.93;;;9.20;;
13927;SDS011;7036;50.834;4.718;2024-03-08T07:38:48;10.02;;;8.43;;
13927;SDS011;7036;50.834;4.718;2024-03-08T07:41:16;12.93;;;8.95;;
13927;SDS011;7036;50.834;4.718;2024-03-08T07:43:44;11.43;;;8.88;;
13927;SDS011;7036;50.834;4.718;2024-03-08T07:46:12;11.88;;;8.82;;
13927;SDS011;7036;50.834;4.718;2024-03-08T07:48:40;9.85;;;8.63;;
13927;SDS011;7036;50.834;4.718;2024-03-08T07:51:08;9.70;;;8.13;;
13927;SDS011;7036;50.834;4.718;2024-03-08T07:53:36;9.75;;;8.25;;
13927;SDS011;7036;50.834;4.718;2024-03-08T07:56:04;9.53;;;8.40;;
13927;SDS011;7036;50.834;4.718;2024-03-08T07:58:30;10.30;;;8.73;;
13927;SDS011;7036;50.834;4.718;2024-03-08T08:00:58;10.70;;;9.13;;
13927;SDS011;7036;50.834;4.718;2024-03-08T08:03:26;9.70;;;8.57;;
13927;SDS011;7036;50.834;4.718;2024-03-08T08:05:54;10.10;;;8.70;;
13927;SDS011;7036;50.834;4.718;2024-03-08T08:08:22;15.40;;;8.40;;
13927;SDS011;7036;50.834;4.718;2024-03-08T08:10:49;11.68;;;9.10;;
13927;SDS011;7036;50.834;4.718;2024-03-08T08:13:17;9.65;;;7.88;;
13927;SDS011;7036;50.834;4.718;2024-03-08T08:15:45;10.52;;;7.97;;
13927;SDS011;7036;50.834;4.718;2024-03-08T08:18:13;14.50;;;8.55;;
13927;SDS011;7036;50.834;4.718;2024-03-08T08:20:39;12.03;;;9.03;;
13927;SDS011;7036;50.834;4.718;2024-03-08T08:23:07;11.00;;;9.05;;
13927;SDS011;7036;50.834;4.718;2024-03-08T08:25:35;13.35;;;9.88;;
13927;SDS011;7036;50.834;4.718;2024-03-08T08:28:03;16.65;;;9.60;;
13927;SDS011;7036;50.834;4.718;2024-03-08T08:30:31;14.80;;;9.38;;
13927;SDS011;7036;50.834;4.718;2024-03-08T08:32:58;16.33;;;9.82;;
13927;SDS011;7036;50.834;4.718;2024-03-08T08:35:26;17.13;;;8.98;;
13927;SDS011;7036;50.834;4.718;2024-03-08T08:37:53;20.45;;;9.52;;
13927;SDS011;7036;50.834;4.718;2024-03-08T08:40:21;13.93;;;9.60;;
13927;SDS011;7036;50.834;4.718;2024-03-08T08:42:49;17.92;;;9.80;;
13927;SDS011;7036;50.834;4.718;2024-03-08T08:45:17;14.30;;;9.85;;
13927;SDS011;7036;50.834;4.718;2024-03-08T08:47:45;16.40;;;9.27;;
13927;SDS011;7036;50.834;4.718;2024-03-08T08:50:12;10.35;;;9.13;;
13927;SDS011;7036;50.834;4.718;2024-03-08T08:52:40;14.68;;;9.73;;
13927;SDS011;7036;50.834;4.718;2024-03-08T08:55:08;12.85;;;9.77;;
13927;SDS011;7036;50.834;4.718;2024-03-08T08:57:36;17.17;;;9.32;;
13927;SDS011;7036;50.834;4.718;2024-03-08T09:00:04;16.52;;;9.88;;
13927;SDS011;7036;50.834;4.718;2024-03-08T09:02:32;14.15;;;9.00;;
13927;SDS011;7036;50.834;4.718;2024-03-08T09:05:00;12.50;;;9.70;;
13927;SDS011;7036;50.834;4.718;2024-03-08T09:07:29;13.10;;;9.20;;
13927;SDS011;7036;50.834;4.718;2024-03-08T09:09:57;15.18;;;9.60;;
13927;SDS011;7036;50.834;4.718;2024-03-08T09:12:25;13.57;;;9.50;;
13927;SDS011;7036;50.834;4.718;2024-03-08T09:14:53;10.65;;;9.15;;
13927;SDS011;7036;50.834;4.718;2024-03-08T09:17:21;13.90;;;8.57;;
13927;SDS011;7036;50.834;4.718;2024-03-08T09:19:49;13.52;;;9.13;;
13927;SDS011;7036;50.834;4.718;2024-03-08T09:22:16;12.55;;;9.23;;
13927;SDS011;7036;50.834;4.718;2024-03-08T09:24:44;14.40;;;8.80;;
13927;SDS011;7036;50.834;4.718;2024-03-08T09:27:13;14.20;;;9.25;;
13927;SDS011;7036;50.834;4.718;2024-03-08T09:29:40;11.80;;;9.37;;
13927;SDS011;7036;50.834;4.718;2024-03-08T09:32:07;13.15;;;9.82;;
13927;SDS011;7036;50.834;4.718;2024-03-08T09:34:35;10.35;;;9.25;;
13927;SDS011;7036;50.834;4.718;2024-03-08T09:37:03;12.60;;;9.52;;
13927;SDS011;7036;50.834;4.718;2024-03-08T09:39:30;12.82;;;9.57;;
13927;SDS011;7036;50.834;4.718;2024-03-08T09:41:58;10.85;;;8.82;;
13927;SDS011;7036;50.834;4.718;2024-03-08T09:44:26;11.65;;;8.48;;
13927;SDS011;7036;50.834;4.718;2024-03-08T09:46:54;10.00;;;9.00;;
13927;SDS011;7036;50.834;4.718;2024-03-08T09:49:21;14.10;;;9.50;;
13927;SDS011;7036;50.834;4.718;2024-03-08T09:51:49;11.07;;;9.02;;
13927;SDS011;7036;50.834;4.718;2024-03-08T09:54:16;10.77;;;9.63;;
13927;SDS011;7036;50.834;4.718;2024-03-08T09:56:44;11.32;;;9.00;;
13927;SDS011;7036;50.834;4.718;2024-03-08T09:59:12;10.73;;;8.93;;
13927;SDS011;7036;50.834;4.718;2024-03-08T10:01:42;11.13;;;8.97;;
13927;SDS011;7036;50.834;4.718;2024-03-08T10:04:10;10.05;;;9.05;;
13927;SDS011;7036;50.834;4.718;2024-03-08T10:06:38;11.15;;;8.82;;
13927;SDS011;7036;50.834;4.718;2024-03-08T10:09:05;11.65;;;9.95;;
13927;SDS011;7036;50.834;4.718;2024-03-08T10:11:32;10.40;;;9.00;;
13927;SDS011;7036;50.834;4.718;2024-03-08T10:14:00;9.52;;;8.50;;
13927;SDS011;7036;50.834;4.718;2024-03-08T10:16:28;9.15;;;8.18;;
13927;SDS011;7036;50.834;4.718;2024-03-08T10:18:56;10.70;;;9.00;;
13927;SDS011;7036;50.834;4.718;2024-03-08T10:21:24;10.57;;;8.88;;
13927;SDS011;7036;50.834;4.718;2024-03-08T10:23:51;9.77;;;8.82;;
13927;SDS011;7036;50.834;4.718;2024-03-08T10:26:19;11.10;;;9.52;;
13927;SDS011;7036;50.834;4.718;2024-03-08T10:28:48;10.15;;;8.85;;
13927;SDS011;7036;50.834;4.718;2024-03-08T10:31:15;10.30;;;8.32;;
13927;SDS011;7036;50.834;4.718;2024-03-08T10:33:42;11.27;;;9.02;;
13927;SDS011;7036;50.834;4.718;2024-03-08T10:36:10;10.23;;;9.02;;
13927;SDS011;7036;50.834;4.718;2024-03-08T10:38:38;10.68;;;8.52;;
13927;SDS011;7036;50.834;4.718;2024-03-08T10:41:08;9.07;;;7.90;;
13927;SDS011;7036;50.834;4.718;2024-03-08T10:43:40;9.88;;;8.60;;
13927;SDS011;7036;50.834;4.718;2024-03-08T10:46:08;9.82;;;8.82;;
13927;SDS011;7036;50.834;4.718;2024-03-08T10:48:32;10.23;;;9.03;;
13927;SDS011;7036;50.834;4.718;2024-03-08T10:51:03;9.55;;;8.27;;
13927;SDS011;7036;50.834;4.718;2024-03-08T10:53:30;10.57;;;8.87;;
13927;SDS011;7036;50.834;4.718;2024-03-08T10:55:58;9.57;;;8.57;;
13927;SDS011;7036;50.834;4.718;2024-03-08T10:58:26;9.70;;;8.70;;
13927;SDS011;7036;50.834;4.718;2024-03-08T11:00:55;10.40;;;8.50;;
13927;SDS011;7036;50.834;4.718;2024-03-08T11:06:08;10.37;;;9.03;;
13927;SDS011;7036;50.834;4.718;2024-03-08T11:08:36;10.68;;;8.98;;
13927;SDS011;7036;50.834;4.718;2024-03-08T11:11:04;9.48;;;8.48;;
13927;SDS011;7036;50.834;4.718;2024-03-08T11:13:36;9.63;;;8.20;;
13927;SDS011;7036;50.834;4.718;2024-03-08T11:16:05;9.23;;;8.33;;
13927;SDS011;7036;50.834;4.718;2024-03-08T11:18:29;8.68;;;7.75;;
13927;SDS011;7036;50.834;4.718;2024-03-08T11:20:57;11.15;;;8.48;;
13927;SDS011;7036;50.834;4.718;2024-03-08T11:23:25;10.20;;;8.57;;
13927;SDS011;7036;50.834;4.718;2024-03-08T11:25:52;9.02;;;8.15;;
13927;SDS011;7036;50.834;4.718;2024-03-08T11:28:20;10.02;;;9.02;;
13927;SDS011;7036;50.834;4.718;2024-03-08T11:33:27;8.70;;;7.80;;
13927;SDS011;7036;50.834;4.718;2024-03-08T11:36:12;10.15;;;7.93;;
13927;SDS011;7036;50.834;4.718;2024-03-08T11:38:48;9.93;;;8.87;;
13927;SDS011;7036;50.834;4.718;2024-03-08T11:41:19;10.57;;;9.10;;
13927;SDS011;7036;50.834;4.718;2024-03-08T11:43:46;8.97;;;8.10;;
13927;SDS011;7036;50.834;4.718;2024-03-08T11:46:14;9.83;;;8.43;;
13927;SDS011;7036;50.834;4.718;2024-03-08T11:48:41;10.35;;;8.70;;
13927;SDS011;7036;50.834;4.718;2024-03-08T11:51:10;8.98;;;8.05;;
13927;SDS011;7036;50.834;4.718;2024-03-08T11:53:36;9.32;;;8.38;;
13927;SDS011;7036;50.834;4.718;2024-03-08T11:56:08;9.95;;;8.88;;
13927;SDS011;7036;50.834;4.718;2024-03-08T11:58:35;9.87;;;8.20;;
13927;SDS011;7036;50.834;4.718;2024-03-08T12:01:05;9.77;;;8.77;;
13927;SDS011;7036;50.834;4.718;2024-03-08T12:03:34;9.70;;;8.70;;
13927;SDS011;7036;50.834;4.718;2024-03-08T12:06:02;9.73;;;8.38;;
13927;SDS011;7036;50.834;4.718;2024-03-08T12:08:32;9.20;;;8.20;;
13927;SDS011;7036;50.834;4.718;2024-03-08T12:10:58;8.40;;;7.60;;
13927;SDS011;7036;50.834;4.718;2024-03-08T12:13:26;9.02;;;8.20;;
13927;SDS011;7036;50.834;4.718;2024-03-08T12:15:54;9.10;;;8.30;;
13927;SDS011;7036;50.834;4.718;2024-03-08T12:18:22;8.98;;;8.07;;
13927;SDS011;7036;50.834;4.718;2024-03-08T12:20:51;8.77;;;7.88;;
13927;SDS011;7036;50.834;4.718;2024-03-08T12:23:17;9.93;;;8.47;;
13927;SDS011;7036;50.834;4.718;2024-03-08T12:25:45;8.70;;;7.75;;
13927;SDS011;7036;50.834;4.718;2024-03-08T12:28:13;8.70;;;7.85;;
13927;SDS011;7036;50.834;4.718;2024-03-08T12:30:50;10.88;;;8.05;;
13927;SDS011;7036;50.834;4.718;2024-03-08T12:33:19;8.47;;;7.70;;
13927;SDS011;7036;50.834;4.718;2024-03-08T12:35:53;8.82;;;7.78;;
13927;SDS011;7036;50.834;4.718;2024-03-08T12:38:23;9.50;;;8.60;;
13927;SDS011;7036;50.834;4.718;2024-03-08T12:40:58;9.63;;;8.70;;
13927;SDS011;7036;50.834;4.718;2024-03-08T12:43:22;8.43;;;7.63;;
13927;SDS011;7036;50.834;4.718;2024-03-08T12:45:49;8.93;;;8.10;;
13927;SDS011;7036;50.834;4.718;2024-03-08T12:48:17;8.70;;;7.80;;
13927;SDS011;7036;50.834;4.718;2024-03-08T12:50:45;9.32;;;8.40;;
13927;SDS011;7036;50.834;4.718;2024-03-08T12:53:13;8.50;;;7.68;;
13927;SDS011;7036;50.834;4.718;2024-03-08T12:55:41;8.93;;;8.07;;
13927;SDS011;7036;50.834;4.718;2024-03-08T12:58:09;9.13;;;8.23;;
13927;SDS011;7036;50.834;4.718;2024-03-08T13:00:37;9.10;;;8.18;;
13927;SDS011;7036;50.834;4.718;2024-03-08T13:03:05;8.65;;;7.85;;
13927;SDS011;7036;50.834;4.718;2024-03-08T13:05:33;9.15;;;8.25;;
13927;SDS011;7036;50.834;4.718;2024-03-08T13:08:01;9.00;;;7.75;;
13927;SDS011;7036;50.834;4.718;2024-03-08T13:10:29;9.13;;;8.15;;
13927;SDS011;7036;50.834;4.718;2024-03-08T13:12:56;9.73;;;8.50;;
13927;SDS011;7036;50.834;4.718;2024-03-08T13:15:24;8.63;;;7.82;;
13927;SDS011;7036;50.834;4.718;2024-03-08T13:17:52;9.50;;;8.50;;
13927;SDS011;7036;50.834;4.718;2024-03-08T13:20:20;8.55;;;7.65;;
13927;SDS011;7036;50.834;4.718;2024-03-08T13:22:48;8.25;;;7.55;;
13927;SDS011;7036;50.834;4.718;2024-03-08T13:25:16;8.57;;;7.68;;
13927;SDS011;7036;50.834;4.718;2024-03-08T13:27:44;9.07;;;8.18;;
13927;SDS011;7036;50.834;4.718;2024-03-08T13:30:11;9.02;;;7.95;;
13927;SDS011;7036;50.834;4.718;2024-03-08T13:32:41;9.23;;;8.33;;
13927;SDS011;7036;50.834;4.718;2024-03-08T13:35:09;8.90;;;8.00;;
13927;SDS011;7036;50.834;4.718;2024-03-08T13:37:37;8.65;;;7.78;;
13927;SDS011;7036;50.834;4.718;2024-03-08T13:40:05;9.10;;;7.90;;
13927;SDS011;7036;50.834;4.718;2024-03-08T13:42:32;9.00;;;8.03;;
13927;SDS011;7036;50.834;4.718;2024-03-08T13:44:59;8.67;;;7.87;;
13927;SDS011;7036;50.834;4.718;2024-03-08T13:47:27;10.85;;;8.00;;
13927;SDS011;7036;50.834;4.718;2024-03-08T13:49:54;8.68;;;7.78;;
13927;SDS011;7036;50.834;4.718;2024-03-08T13:52:22;8.60;;;7.70;;
13927;SDS011;7036;50.834;4.718;2024-03-08T13:54:50;8.07;;;7.30;;
13927;SDS011;7036;50.834;4.718;2024-03-08T13:57:18;8.55;;;7.72;;
13927;SDS011;7036;50.834;4.718;2024-03-08T13:59:46;8.73;;;7.90;;
13927;SDS011;7036;50.834;4.718;2024-03-08T14:02:13;9.77;;;7.93;;
13927;SDS011;7036;50.834;4.718;2024-03-08T14:04:41;7.68;;;6.97;;
13927;SDS011;7036;50.834;4.718;2024-03-08T14:07:09;8.45;;;7.65;;
13927;SDS011;7036;50.834;4.718;2024-03-08T14:09:37;8.27;;;7.47;;
13927;SDS011;7036;50.834;4.718;2024-03-08T14:12:05;7.72;;;6.93;;
13927;SDS011;7036;50.834;4.718;2024-03-08T14:14:35;7.70;;;7.00;;
13927;SDS011;7036;50.834;4.718;2024-03-08T14:17:03;8.00;;;7.05;;
13927;SDS011;7036;50.834;4.718;2024-03-08T14:19:30;8.45;;;7.55;;
13927;SDS011;7036;50.834;4.718;2024-03-08T14:21:58;7.72;;;7.07;;
13927;SDS011;7036;50.834;4.718;2024-03-08T14:24:26;8.93;;;8.00;;
13927;SDS011;7036;50.834;4.718;2024-03-08T14:26:54;7.22;;;6.63;;
13927;SDS011;7036;50.834;4.718;2024-03-08T14:29:22;7.80;;;7.00;;
13927;SDS011;7036;50.834;4.718;2024-03-08T14:31:49;8.23;;;7.07;;
13927;SDS011;7036;50.834;4.718;2024-03-08T14:34:17;7.65;;;6.68;;
13927;SDS011;7036;50.834;4.718;2024-03-08T14:36:45;8.57;;;7.53;;
13927;SDS011;7036;50.834;4.718;2024-03-08T14:39:13;7.70;;;7.00;;
13927;SDS011;7036;50.834;4.718;2024-03-08T14:41:41;8.80;;;7.30;;
13927;SDS011;7036;50.834;4.718;2024-03-08T14:44:09;8.68;;;7.78;;
13927;SDS011;7036;50.834;4.718;2024-03-08T14:46:37;7.93;;;6.93;;
13927;SDS011;7036;50.834;4.718;2024-03-08T14:49:04;7.63;;;6.88;;
13927;SDS011;7036;50.834;4.718;2024-03-08T14:51:32;7.82;;;6.90;;
13927;SDS011;7036;50.834;4.718;2024-03-08T14:54:00;7.80;;;7.00;;
13927;SDS011;7036;50.834;4.718;2024-03-08T14:56:28;7.00;;;6.40;;
13927;SDS011;7036;50.834;4.718;2024-03-08T14:58:56;7.28;;;6.38;;
13927;SDS011;7036;50.834;4.718;2024-03-08T15:01:24;8.27;;;7.57;;
13927;SDS011;7036;50.834;4.718;2024-03-08T15:03:52;7.80;;;7.00;;